Time;durP1;ratioP1;P1;durP2;ratioP2;P2;SDS_P1;SDS_P2;PMS_P1;PMS_P2;Temp;Humidity;BMP_temperature;BMP_pressure;BME280_temperature;BME280_humidity;BME280_pressure;Samples;Min_cycle;Max_cycle;Signal;HPM_P1;HPM_P2
2024/01/07 00:01:16;;;;;;;2.28;1.25;;;;;;;11.52;100.00;96501.75;6224301;23;20012;-94
2024/01/07 00:03:45;;;;;;;2.05;1.35;;;;;;;11.19;100.00;96449.84;6223644;23;20111;-93
2024/01/07 00:06:12;;;;;;;2.03;1.30;;;;;;;11.33;100.00;96482.63;6224399;23;20027;-93
2024/01/07 00:08:38;;;;;;;2.35;1.10;;;;;;;11.19;100.00;96481.75;6224275;23;20051;-94
2024/01/07 00:11:07;;;;;;;2.65;1.52;;;;;;;11.26;100.00;96476.88;6224665;23;20024;-94
2024/01/07 00:13:34;;;;;;;2.08;1.02;;;;;;;11.47;100.00;96502.06;6225075;23;20028;-93
2024/01/07 00:15:59;;;;;;;1.98;1.17;;;;;;;11.20;100.00;96451.53;6225026;23;20032;-93
2024/01/07 00:18:29;;;;;;;5.60;1.00;;;;;;;11.00;100.00;96409.47;6225452;23;20017;-94
2024/01/07 00:20:58;;;;;;;1.23;0.88;;;;;;;11.03;100.00;96427.84;6224805;23;20020;-93
2024/01/07 00:23:29;;;;;;;1.98;1.02;;;;;;;10.94;100.00;96415.19;6224292;23;20029;-94
2024/01/07 00:25:57;;;;;;;2.47;0.95;;;;;;;11.19;100.00;96462.25;6224612;23;20020;-92
2024/01/07 00:28:24;;;;;;;1.65;1.00;;;;;;;10.68;100.00;96413.25;6249227;23;20020;-93
2024/01/07 00:30:56;;;;;;;1.95;1.00;;;;;;;10.66;100.00;96403.69;6222940;23;20023;-93
2024/01/07 00:33:24;;;;;;;1.77;0.80;;;;;;;11.01;100.00;96456.34;6222313;23;20028;-94
2024/01/07 00:35:52;;;;;;;1.40;0.75;;;;;;;10.83;100.00;96448.63;6224894;23;20023;-93
2024/01/07 00:38:21;;;;;;;2.97;1.30;;;;;;;10.81;100.00;96442.56;6223479;23;20044;-92
2024/01/07 00:40:49;;;;;;;2.00;1.05;;;;;;;11.00;100.00;96447.53;6224332;23;20020;-93
2024/01/07 00:43:15;;;;;;;1.95;0.90;;;;;;;11.11;100.00;96468.09;6222988;23;20082;-94
2024/01/07 00:45:44;;;;;;;1.58;1.10;;;;;;;11.25;100.00;96496.44;6221400;23;20394;-93
2024/01/07 00:48:10;;;;;;;1.23;0.77;;;;;;;11.15;100.00;96480.25;6224025;23;20016;-93
2024/01/07 00:50:38;;;;;;;3.40;0.75;;;;;;;10.70;100.00;96407.84;6224648;23;20035;-94
2024/01/07 00:53:05;;;;;;;1.25;0.80;;;;;;;11.04;100.00;96458.84;6227376;23;20017;-94
2024/01/07 00:55:35;;;;;;;0.95;0.70;;;;;;;11.10;100.00;96474.34;6227521;23;20039;-94
2024/01/07 00:58:03;;;;;;;0.93;0.63;;;;;;;10.97;100.00;96441.56;6226004;23;20354;-94
2024/01/07 01:00:29;;;;;;;0.93;0.50;;;;;;;11.39;100.00;96508.84;6225823;23;20028;-94
2024/01/07 01:02:56;;;;;;;1.30;0.75;;;;;;;11.26;100.00;96488.38;6251250;23;20016;-94
2024/01/07 01:05:22;;;;;;;1.60;0.60;;;;;;;11.38;100.00;96507.97;6226961;23;20021;-94
2024/01/07 01:07:49;;;;;;;1.73;0.88;;;;;;;11.10;100.00;96475.22;6249476;23;20474;-93
2024/01/07 01:10:18;;;;;;;0.95;0.52;;;;;;;10.77;100.00;96425.09;6223600;23;20024;-95
2024/01/07 01:12:47;;;;;;;2.47;0.73;;;;;;;11.05;100.00;96508.41;6224734;23;20021;-95
2024/01/07 01:15:16;;;;;;;2.05;0.60;;;;;;;10.79;100.00;96428.50;6224762;23;20023;-93
2024/01/07 01:17:52;;;;;;;1.48;0.70;;;;;;;11.20;100.00;96498.56;6224918;23;20454;-96
2024/01/07 01:20:18;;;;;;;0.80;0.60;;;;;;;11.14;100.00;96472.38;6224578;23;20023;-94
2024/01/07 01:22:49;;;;;;;0.93;0.43;;;;;;;11.34;100.00;96494.97;6224144;23;20032;-94
2024/01/07 01:25:16;;;;;;;0.88;0.47;;;;;;;10.86;100.00;96427.19;6224883;23;20011;-94
2024/01/07 01:27:44;;;;;;;1.13;0.57;;;;;;;11.38;100.00;96512.44;6224565;23;20335;-93
2024/01/07 01:30:14;;;;;;;0.60;0.50;;;;;;;11.34;100.00;96505.63;6223654;23;20023;-94
2024/01/07 01:32:46;;;;;;;1.90;0.70;;;;;;;10.87;100.00;96431.53;6223409;23;20112;-94
2024/01/07 01:35:14;;;;;;;0.65;0.55;;;;;;;10.81;100.00;96412.47;6249626;23;20024;-93
2024/01/07 01:37:43;;;;;;;1.23;0.60;;;;;;;10.62;100.00;96423.44;6224286;23;20047;-94
2024/01/07 01:40:11;;;;;;;0.70;0.43;;;;;;;10.73;100.00;96428.06;6224335;23;20020;-94
2024/01/07 01:42:37;;;;;;;4.22;0.65;;;;;;;10.61;100.00;96427.06;6223989;23;20107;-93
2024/01/07 01:45:04;;;;;;;1.10;0.50;;;;;;;10.75;100.00;96434.97;6225321;23;20008;-93
2024/01/07 01:47:32;;;;;;;0.82;0.55;;;;;;;10.95;100.00;96449.66;6224772;23;20020;-93
2024/01/07 01:50:02;;;;;;;0.50;0.30;;;;;;;10.79;100.00;96423.19;6223816;23;20047;-94
2024/01/07 01:52:28;;;;;;;;;;;;;;;11.34;100.00;96505.63;6221561;23;20074;-94
2024/01/07 01:54:54;;;;;;;0.80;0.50;;;;;;;11.09;100.00;96475.31;6224687;23;19916;-93
2024/01/07 01:57:24;;;;;;;1.23;0.73;;;;;;;10.89;100.00;96434.94;6223810;23;20044;-94
2024/01/07 01:59:51;;;;;;;1.33;0.50;;;;;;;10.70;100.00;96399.88;6224061;23;20030;-93
2024/01/07 02:02:23;;;;;;;0.63;0.50;;;;;;;10.80;100.00;96416.94;6223960;23;20048;-93
2024/01/07 02:04:48;;;;;;;0.90;0.45;;;;;;;10.98;100.00;96446.78;6225089;23;20070;-95
2024/01/07 02:07:19;;;;;;;1.80;0.77;;;;;;;10.82;100.00;96419.47;6223693;23;20016;-93
2024/01/07 02:09:44;;;;;;;1.70;0.50;;;;;;;10.90;100.00;96441.09;6224959;23;20079;-94
2024/01/07 02:12:16;;;;;;;0.60;0.40;;;;;;;10.82;100.00;96420.34;6224509;23;20024;-94
2024/01/07 02:14:42;;;;;;;1.60;0.60;;;;;;;11.12;100.00;96455.66;6224305;23;20032;-93
2024/01/07 02:17:10;;;;;;;0.88;0.50;;;;;;;11.06;100.00;96452.44;6223207;23;20020;-93
2024/01/07 02:19:36;;;;;;;1.17;0.55;;;;;;;11.28;100.00;96488.28;6224119;23;20016;-93
2024/01/07 02:22:04;;;;;;;0.93;0.52;;;;;;;10.98;100.00;96454.75;6249841;23;20020;-93
2024/01/07 02:24:32;;;;;;;3.90;0.55;;;;;;;11.08;100.00;96465.63;6224513;23;20020;-94
2024/01/07 02:27:02;;;;;;;0.80;0.40;;;;;;;11.02;100.00;96466.91;6224079;23;20021;-93
2024/01/07 02:29:28;;;;;;;1.08;0.75;;;;;;;11.03;100.00;96479.22;6248583;23;20428;-93
2024/01/07 02:31:53;;;;;;;0.77;0.63;;;;;;;11.04;100.00;96494.25;6223716;23;20035;-93
2024/01/07 02:34:19;;;;;;;1.20;0.90;;;;;;;10.71;100.00;96449.41;6224392;23;20487;-95
2024/01/07 02:36:45;;;;;;;1.02;0.57;;;;;;;10.72;100.00;96437.84;6224463;23;20023;-93
2024/01/07 02:39:12;;;;;;;1.00;0.70;;;;;;;10.90;100.00;96487.16;6223974;23;20028;-94
2024/01/07 02:41:40;;;;;;;1.55;0.82;;;;;;;10.60;100.00;96442.13;6223828;23;20047;-93
2024/01/07 02:44:06;;;;;;;1.88;0.70;;;;;;;10.69;100.00;96456.63;6224129;23;20435;-93
2024/01/07 02:46:35;;;;;;;1.55;0.63;;;;;;;10.60;100.00;96449.28;6223981;23;20056;-94
2024/01/07 02:49:01;;;;;;;1.95;0.52;;;;;;;10.60;100.00;96460.75;6251396;22;20028;-93
2024/01/07 02:51:27;;;;;;;0.60;0.50;;;;;;;10.42;100.00;96422.94;6251387;23;20442;-94
2024/01/07 02:53:56;;;;;;;0.50;0.50;;;;;;;10.57;100.00;96468.94;6225702;23;20023;-91
2024/01/07 02:56:22;;;;;;;1.52;0.93;;;;;;;10.42;100.00;96430.91;6226248;23;20032;-94
2024/01/07 02:58:51;;;;;;;0.82;0.82;;;;;;;10.52;100.00;96455.09;6225274;23;20811;-93
2024/01/07 03:01:21;;;;;;;0.98;0.40;;;;;;;10.51;100.00;96460.50;6225269;23;20020;-94
2024/01/07 03:03:47;;;;;;;1.67;0.60;;;;;;;10.77;100.00;96483.59;6225917;23;20017;-94
2024/01/07 03:06:14;;;;;;;0.60;0.40;;;;;;;10.41;100.00;96441.63;6226472;23;20028;-95
2024/01/07 03:08:41;;;;;;;0.85;0.40;;;;;;;10.21;100.00;96425.13;6224767;23;20017;-94
2024/01/07 03:11:10;;;;;;;1.05;0.40;;;;;;;10.65;100.00;96476.41;6225865;23;20056;-93
2024/01/07 03:13:40;;;;;;;0.30;0.30;;;;;;;10.13;100.00;96399.97;6224958;23;20022;-95
2024/01/07 03:16:07;;;;;;;1.27;0.50;;;;;;;10.46;100.00;96456.31;6249907;23;20040;-94
2024/01/07 03:18:36;;;;;;;0.43;0.30;;;;;;;10.29;100.00;96443.25;6224614;23;20024;-93
2024/01/07 03:21:03;;;;;;;0.85;0.50;;;;;;;10.73;100.00;96503.34;6225330;23;20024;-94
2024/01/07 03:23:30;;;;;;;0.47;0.30;;;;;;;10.54;100.00;96454.97;6225338;23;20080;-95
2024/01/07 03:25:58;;;;;;;0.57;0.45;;;;;;;10.41;100.00;96441.63;6224777;23;20021;-94
2024/01/07 03:28:24;;;;;;;0.93;0.50;;;;;;;10.39;100.00;96464.78;6223977;23;20371;-93
2024/01/07 03:30:50;;;;;;;0.40;0.40;;;;;;;10.28;100.00;96441.53;6221781;23;20027;-94
2024/01/07 03:33:21;;;;;;;0.88;0.35;;;;;;;10.12;100.00;96407.09;6222041;23;20028;-95
2024/01/07 03:35:49;;;;;;;1.13;0.63;;;;;;;9.96;100.00;96415.19;6246712;23;20044;-95
2024/01/07 03:38:18;;;;;;;0.40;0.30;;;;;;;10.52;100.00;96486.09;6222891;23;20032;-94
2024/01/07 03:40:45;;;;;;;0.50;0.40;;;;;;;10.67;100.00;96488.66;6222319;23;20048;-93
2024/01/07 03:43:14;;;;;;;0.65;0.50;;;;;;;10.49;100.00;96481.84;6218365;23;20020;-95
2024/01/07 03:45:43;;;;;;;0.57;0.35;;;;;;;10.17;100.00;96430.72;6220604;23;20017;-94
2024/01/07 03:48:09;;;;;;;0.50;0.45;;;;;;;10.48;100.00;96469.53;6220784;23;20024;-95
2024/01/07 03:50:39;;;;;;;0.38;0.38;;;;;;;10.56;100.00;96487.63;6221431;23;20018;-95
2024/01/07 03:53:05;;;;;;;1.13;0.63;;;;;;;10.60;100.00;96499.75;6221311;23;20047;-95
2024/01/07 03:55:33;;;;;;;1.83;0.50;;;;;;;10.21;100.00;96418.94;6220548;23;20115;-96
2024/01/07 03:57:59;;;;;;;0.98;0.40;;;;;;;10.54;100.00;96473.56;6219381;23;20023;-95
2024/01/07 04:00:28;;;;;;;1.95;0.38;;;;;;;10.47;100.00;96451.84;6219138;23;20021;-94
2024/01/07 04:02:54;;;;;;;0.70;0.30;;;;;;;10.38;100.00;96460.41;6219764;23;20044;-94
2024/01/07 04:05:20;;;;;;;0.90;0.40;;;;;;;10.73;100.00;96502.50;6219890;23;20021;-95
2024/01/07 04:07:48;;;;;;;0.82;0.50;;;;;;;10.49;100.00;96479.19;6220653;23;20103;-95
2024/01/07 04:10:17;;;;;;;0.40;0.40;;;;;;;10.14;100.00;96417.63;6246827;22;20423;-94
2024/01/07 04:12:43;;;;;;;0.50;0.40;;;;;;;10.07;100.00;96407.41;6221107;23;20443;-95
2024/01/07 04:15:10;;;;;;;0.82;0.30;;;;;;;10.41;100.00;96466.41;6222043;23;20023;-95
2024/01/07 04:17:35;;;;;;;0.60;0.30;;;;;;;10.33;100.00;96449.25;6221369;23;20071;-94
2024/01/07 04:20:04;;;;;;;0.40;0.30;;;;;;;10.27;100.00;96437.16;6220418;23;20398;-95
2024/01/07 04:22:31;;;;;;;0.25;0.20;;;;;;;10.31;100.00;96437.84;6220121;23;20031;-93
2024/01/07 04:25:01;;;;;;;0.30;0.22;;;;;;;9.97;100.00;96454.03;6217614;23;20343;-93
2024/01/07 04:27:27;;;;;;;;;;;;;;;10.46;100.00;96517.44;6220607;23;20059;-93
2024/01/07 04:29:53;;;;;;;0.40;0.30;;;;;;;10.14;100.00;96446.84;6219925;23;19916;-94
2024/01/07 04:32:19;;;;;;;0.25;0.25;;;;;;;10.24;100.00;96456.81;6219649;23;20343;-94
2024/01/07 04:34:45;;;;;;;1.15;0.30;;;;;;;10.18;100.00;96456.34;6245061;22;20490;-96
2024/01/07 04:37:11;;;;;;;1.08;0.40;;;;;;;10.31;100.00;96478.53;6219577;23;20098;-94
2024/01/07 04:39:36;;;;;;;2.50;0.30;;;;;;;10.28;100.00;96478.72;6219690;23;20123;-94
2024/01/07 04:42:04;;;;;;;0.43;0.20;;;;;;;10.31;100.00;96467.91;6219746;23;20032;-94
2024/01/07 04:44:30;;;;;;;0.52;0.30;;;;;;;10.23;100.00;96455.06;6224209;23;20022;-93
2024/01/07 04:46:56;;;;;;;0.68;0.45;;;;;;;10.18;100.00;96437.75;6199218;23;20057;-95
2024/01/07 04:49:22;;;;;;;0.22;0.22;;;;;;;10.21;100.00;96457.00;6199294;23;20022;-94
2024/01/07 04:51:51;;;;;;;0.20;0.20;;;;;;;10.56;100.00;96498.25;6224276;22;20030;-94
2024/01/07 04:54:16;;;;;;;0.38;0.22;;;;;;;10.41;100.00;96494.75;6224682;22;20460;-93
2024/01/07 04:56:42;;;;;;;0.20;0.20;;;;;;;10.59;100.00;96506.88;6198458;23;20026;-93
2024/01/07 04:59:13;;;;;;;1.33;0.35;;;;;;;10.26;100.00;96484.13;6198262;23;20018;-94
2024/01/07 05:01:39;;;;;;;0.20;0.20;;;;;;;10.62;100.00;96524.44;6199065;23;20038;-94
2024/01/07 05:04:08;;;;;;;0.60;0.30;;;;;;;10.43;100.00;96496.38;6224852;23;20026;-94
2024/01/07 05:06:33;;;;;;;0.30;0.22;;;;;;;10.26;100.00;96473.50;6198892;23;20338;-93
2024/01/07 05:08:59;;;;;;;0.47;0.30;;;;;;;10.14;100.00;96455.66;6199111;23;20019;-93
2024/01/07 05:11:25;;;;;;;0.28;0.22;;;;;;;10.41;100.00;96506.25;6224580;23;20027;-93
2024/01/07 05:13:51;;;;;;;0.55;0.47;;;;;;;10.33;100.00;96491.75;6223541;23;20318;-94
2024/01/07 05:16:22;;;;;;;1.63;0.30;;;;;;;10.14;100.00;96460.13;6223876;23;20029;-93
2024/01/07 05:18:49;;;;;;;0.10;0.10;;;;;;;10.51;100.00;96516.28;6199052;23;20437;-94
2024/01/07 05:21:15;;;;;;;0.20;0.20;;;;;;;10.17;100.00;96460.78;6224819;23;20026;-94
2024/01/07 05:23:44;;;;;;;0.30;0.30;;;;;;;10.01;100.00;96439.63;6199265;23;20022;-94
2024/01/07 05:26:11;;;;;;;1.08;0.40;;;;;;;10.50;100.00;96525.22;6201190;23;20096;-95
2024/01/07 05:28:40;;;;;;;0.75;0.50;;;;;;;10.00;100.00;96445.91;6225458;23;20080;-94
2024/01/07 05:31:30;;;;;;;0.73;0.63;;;;;;;9.99;100.00;96446.84;6199811;23;20452;-94
2024/01/07 05:33:57;;;;;;;1.70;0.55;;;;;;;10.14;100.00;96460.97;6199080;23;20029;-94
2024/01/07 05:36:25;;;;;;;1.85;0.90;;;;;;;10.41;100.00;96510.69;6199594;23;20019;-93
2024/01/07 05:38:51;;;;;;;0.35;0.30;;;;;;;10.52;100.00;96550.75;6197092;23;20057;-94
2024/01/07 05:41:17;;;;;;;1.58;0.75;;;;;;;10.16;100.00;96490.09;6200565;23;20026;-95
2024/01/07 05:43:45;;;;;;;1.60;0.70;;;;;;;10.31;100.00;96512.22;6225352;22;20337;-94
2024/01/07 05:46:12;;;;;;;3.63;0.80;;;;;;;10.06;100.00;96477.41;6199687;23;20519;-94
2024/01/07 05:48:44;;;;;;;3.28;1.27;;;;;;;10.54;100.00;96542.66;6200390;23;20045;-93
2024/01/07 05:51:10;;;;;;;3.75;1.45;;;;;;;10.47;100.00;96531.56;6198868;23;20023;-95
2024/01/07 05:53:37;;;;;;;1.60;1.08;;;;;;;10.05;100.00;96466.88;6222520;22;20022;-94
2024/01/07 05:56:06;;;;;;;3.45;1.60;;;;;;;10.48;100.00;96526.16;6224885;23;20046;-94
2024/01/07 05:58:33;;;;;;;2.40;1.52;;;;;;;10.47;100.00;96529.78;6224046;22;20096;-96
2024/01/07 06:01:00;;;;;;;1.33;0.68;;;;;;;10.38;100.00;96524.19;6223106;22;20026;-95
2024/01/07 06:03:27;;;;;;;0.38;0.30;;;;;;;10.45;100.00;96544.97;6223842;22;20019;-95
2024/01/07 06:05:56;;;;;;;0.40;0.30;;;;;;;10.37;100.00;96531.31;6198067;23;20464;-95
2024/01/07 06:08:22;;;;;;;0.30;0.30;;;;;;;10.32;100.00;96538.69;6223324;23;20053;-95
2024/01/07 06:10:49;;;;;;;0.50;0.40;;;;;;;10.04;100.00;96487.25;6198483;23;20033;-96
2024/01/07 06:13:15;;;;;;;0.32;0.28;;;;;;;10.52;100.00;96563.16;6197607;23;20029;-96
2024/01/07 06:15:43;;;;;;;0.30;0.20;;;;;;;10.12;100.00;96504.50;6197615;23;20437;-95
2024/01/07 06:18:09;;;;;;;0.45;0.25;;;;;;;10.10;100.00;96493.13;6222531;23;20141;-95
2024/01/07 06:20:35;;;;;;;0.25;0.22;;;;;;;10.04;100.00;96518.25;6223794;22;20023;-95
2024/01/07 06:23:02;;;;;;;0.20;0.20;;;;;;;10.25;100.00;96539.97;6199804;23;20098;-94
2024/01/07 06:25:29;;;;;;;0.32;0.32;;;;;;;10.01;100.00;96498.03;6200508;23;20053;-94
2024/01/07 06:27:55;;;;;;;0.30;0.30;;;;;;;10.04;100.00;96491.69;6200204;23;20023;-93
2024/01/07 06:30:21;;;;;;;0.38;0.38;;;;;;;10.25;100.00;96527.56;6199683;23;20375;-93
2024/01/07 06:32:48;;;;;;;0.82;0.30;;;;;;;10.10;100.00;96509.06;6199419;23;20056;-94
2024/01/07 06:35:13;;;;;;;0.20;0.20;;;;;;;10.34;100.00;96547.41;6198448;23;20019;-95
2024/01/07 06:37:45;;;;;;;0.40;0.20;;;;;;;9.97;100.00;96490.38;6199716;23;20049;-94
2024/01/07 06:40:15;;;;;;;0.25;0.25;;;;;;;9.99;100.00;96512.38;6199883;23;20018;-94
2024/01/07 06:42:44;;;;;;;0.20;0.20;;;;;;;10.02;100.00;96534.28;6245530;23;20020;-94
2024/01/07 06:45:10;;;;;;;1.17;0.40;;;;;;;10.07;100.00;96534.00;6221152;23;20070;-93
2024/01/07 06:47:37;;;;;;;0.32;0.30;;;;;;;10.16;100.00;96545.88;6221230;23;20008;-93
2024/01/07 06:50:03;;;;;;;0.28;0.28;;;;;;;10.35;100.00;96574.84;6220638;23;20043;-94
2024/01/07 06:52:29;;;;;;;0.20;0.20;;;;;;;10.19;100.00;96554.50;6247033;22;20024;-94
2024/01/07 06:54:55;;;;;;;0.22;0.22;;;;;;;10.05;100.00;96539.41;6221423;23;20051;-94
2024/01/07 06:57:22;;;;;;;0.40;0.30;;;;;;;9.80;100.00;96497.56;6248051;23;20025;-94
2024/01/07 06:59:48;;;;;;;0.63;0.30;;;;;;;9.93;100.00;96526.88;6220917;23;20423;-94
2024/01/07 07:02:14;;;;;;;0.30;0.20;;;;;;;9.80;100.00;96510.84;6222731;23;20095;-93
2024/01/07 07:04:48;;;;;;;0.22;0.22;;;;;;;9.88;100.00;96516.53;6221483;23;20435;-93
2024/01/07 07:07:17;;;;;;;0.20;0.20;;;;;;;10.01;100.00;96511.31;6245718;22;20017;-94
2024/01/07 07:09:42;;;;;;;0.47;0.35;;;;;;;9.89;100.00;96530.66;6219443;23;20089;-94
2024/01/07 07:12:08;;;;;;;0.30;0.30;;;;;;;10.27;100.00;96596.53;6219344;23;20032;-94
2024/01/07 07:14:38;;;;;;;0.30;0.30;;;;;;;10.08;100.00;96536.56;6220518;23;20052;-93
2024/01/07 07:17:04;;;;;;;0.30;0.30;;;;;;;10.24;100.00;96552.41;6219008;23;20024;-95
2024/01/07 07:19:30;;;;;;;0.43;0.20;;;;;;;10.15;100.00;96534.41;6219928;23;20047;-95
2024/01/07 07:21:56;;;;;;;0.32;0.32;;;;;;;10.43;100.00;96576.09;6221700;23;20491;-94
2024/01/07 07:24:22;;;;;;;0.22;0.22;;;;;;;10.20;100.00;96571.28;6221376;23;20003;-94
2024/01/07 07:26:48;;;;;;;0.43;0.20;;;;;;;9.85;100.00;96513.22;6222997;23;20432;-95
2024/01/07 07:29:16;;;;;;;0.32;0.32;;;;;;;10.06;100.00;96538.47;6223437;23;20031;-94
2024/01/07 07:31:44;;;;;;;0.30;0.30;;;;;;;9.86;100.00;96522.88;6222268;23;20012;-94
2024/01/07 07:34:11;;;;;;;1.25;0.20;;;;;;;10.21;100.00;96573.00;6245323;23;20024;-94
2024/01/07 07:36:39;;;;;;;0.30;0.30;;;;;;;10.15;100.00;96568.03;6220217;23;20020;-94
2024/01/07 07:39:05;;;;;;;0.35;0.32;;;;;;;10.52;100.00;96609.22;6221899;23;20016;-95
2024/01/07 07:41:31;;;;;;;0.30;0.20;;;;;;;10.55;100.00;96618.81;6244978;23;20507;-92
2024/01/07 07:43:57;;;;;;;0.30;0.30;;;;;;;10.42;100.00;96592.97;6219356;23;20063;-92
2024/01/07 07:46:23;;;;;;;0.22;0.22;;;;;;;10.18;100.00;96554.59;6217793;23;20028;-92
2024/01/07 07:48:55;;;;;;;0.40;0.22;;;;;;;10.29;100.00;96562.78;6218604;23;20048;-94
2024/01/07 07:51:24;;;;;;;0.20;0.20;;;;;;;10.20;100.00;96550.91;6218924;23;20078;-94
2024/01/07 07:53:49;;;;;;;1.23;0.30;;;;;;;10.59;100.00;96599.06;6244687;23;20024;-93
2024/01/07 07:56:15;;;;;;;0.32;0.32;;;;;;;10.56;100.00;96589.47;6243979;22;20040;-92
2024/01/07 07:58:41;;;;;;;0.30;0.30;;;;;;;10.58;100.00;96586.69;6218461;23;20116;-92
2024/01/07 08:01:07;;;;;;;0.30;0.30;;;;;;;10.33;100.00;96582.91;6216008;23;20016;-94
2024/01/07 08:03:40;;;;;;;1.02;0.20;;;;;;;10.63;100.00;96612.06;6219281;23;20092;-93
2024/01/07 08:06:07;;;;;;;0.30;0.30;;;;;;;10.67;100.00;96597.63;6219625;23;20012;-93
2024/01/07 08:08:36;;;;;;;0.25;0.25;;;;;;;10.90;100.00;96608.63;6219011;23;20119;-94
2024/01/07 08:11:02;;;;;;;0.30;0.20;;;;;;;10.53;100.00;96578.19;6218587;23;20438;-94
2024/01/07 08:13:28;;;;;;;0.20;0.20;;;;;;;10.53;100.00;96581.69;6220825;23;20054;-95
2024/01/07 08:15:54;;;;;;;0.38;0.20;;;;;;;10.46;100.00;96583.88;6244521;23;20025;-94
2024/01/07 08:18:20;;;;;;;0.30;0.22;;;;;;;10.27;100.00;96573.47;6221266;23;20111;-93
2024/01/07 08:20:46;;;;;;;0.57;0.40;;;;;;;10.48;100.00;96589.94;6223122;23;20070;-91
2024/01/07 08:23:14;;;;;;;0.73;0.30;;;;;;;10.40;100.00;96591.34;6220130;23;20020;-94
2024/01/07 08:25:40;;;;;;;0.40;0.38;;;;;;;10.04;100.00;96566.91;6221142;23;20443;-94
2024/01/07 08:28:06;;;;;;;0.30;0.30;;;;;;;10.46;100.00;96599.81;6220179;23;20347;-94
2024/01/07 08:30:32;;;;;;;0.47;0.28;;;;;;;10.23;100.00;96582.56;6219545;23;20024;-94
2024/01/07 08:32:57;;;;;;;0.22;0.22;;;;;;;10.65;100.00;96625.25;6219719;23;20074;-94
2024/01/07 08:35:26;;;;;;;0.60;0.43;;;;;;;10.79;100.00;96651.84;6220864;23;20013;-93
2024/01/07 08:37:54;;;;;;;0.47;0.30;;;;;;;10.71;100.00;96662.06;6220277;23;20001;-94
2024/01/07 08:40:21;;;;;;;0.28;0.25;;;;;;;10.62;100.00;96642.22;6218431;23;20024;-94
2024/01/07 08:42:47;;;;;;;0.32;0.30;;;;;;;10.15;100.00;96579.53;6242690;23;20020;-95
2024/01/07 08:45:13;;;;;;;0.40;0.30;;;;;;;10.17;100.00;96577.66;6218763;23;20020;-96
2024/01/07 08:47:42;;;;;;;0.25;0.20;;;;;;;10.58;100.00;96629.22;6219640;23;20021;-93
2024/01/07 08:50:08;;;;;;;0.25;0.20;;;;;;;10.53;100.00;96612.72;6220664;23;20489;-94
2024/01/07 08:52:43;;;;;;;0.30;0.30;;;;;;;10.48;100.00;96605.03;6224341;23;20108;-94
2024/01/07 08:55:10;;;;;;;0.20;0.20;;;;;;;10.28;100.00;96612.38;6222273;23;20020;-94
2024/01/07 08:57:39;;;;;;;0.57;0.30;;;;;;;10.02;100.00;96584.75;6221791;23;20066;-94
2024/01/07 09:00:07;;;;;;;0.20;0.20;;;;;;;10.23;100.00;96597.66;6222080;23;20023;-95
2024/01/07 09:02:33;;;;;;;0.30;0.30;;;;;;;10.46;100.00;96644.97;6222368;23;20020;-95
2024/01/07 09:05:03;;;;;;;0.65;0.20;;;;;;;10.74;100.00;96656.59;6222204;23;20111;-95
2024/01/07 09:07:29;;;;;;;0.20;0.20;;;;;;;10.60;100.00;96640.63;6244883;23;20060;-94
2024/01/07 09:09:59;;;;;;;2.72;0.25;;;;;;;10.66;100.00;96688.09;6244910;23;20020;-93
2024/01/07 09:12:24;;;;;;;0.45;0.15;;;;;;;10.70;100.00;96668.34;6245430;23;20080;-94
2024/01/07 09:14:52;;;;;;;0.20;0.20;;;;;;;10.11;100.00;96628.47;6219490;23;20004;-93
2024/01/07 09:17:18;;;;;;;0.25;0.20;;;;;;;10.19;100.00;96665.19;6218257;23;20004;-92
2024/01/07 09:19:45;;;;;;;0.15;0.15;;;;;;;10.28;100.00;96652.22;6245217;23;20435;-90
2024/01/07 09:22:11;;;;;;;1.48;0.40;;;;;;;10.62;100.00;96662.66;6217945;23;20021;-94
2024/01/07 09:24:40;;;;;;;1.25;0.20;;;;;;;10.63;100.00;96643.09;6221496;23;20028;-93
2024/01/07 09:27:08;;;;;;;1.02;0.22;;;;;;;10.33;100.00;96598.00;6245877;22;20063;-94
2024/01/07 09:29:37;;;;;;;0.38;0.38;;;;;;;10.67;100.00;96634.00;6220078;23;20025;-92
2024/01/07 09:32:07;;;;;;;0.32;0.20;;;;;;;10.99;100.00;96668.34;6221369;23;20023;-94
2024/01/07 09:34:33;;;;;;;0.73;0.30;;;;;;;10.86;100.00;96706.34;6246335;23;20450;-93
2024/01/07 09:36:59;;;;;;;0.50;0.40;;;;;;;10.67;100.00;96700.44;6220838;23;20016;-94
2024/01/07 09:39:25;;;;;;;0.40;0.20;;;;;;;10.48;100.00;96643.09;6221975;23;20024;-95
2024/01/07 09:41:51;;;;;;;0.60;0.20;;;;;;;10.58;100.00;96624.78;6221595;23;20072;-92
2024/01/07 09:44:20;;;;;;;0.22;0.20;;;;;;;10.61;100.00;96613.97;6247777;22;20017;-94
2024/01/07 09:46:51;;;;;;;0.65;0.47;;;;;;;10.93;100.00;96663.41;6221485;23;20425;-94
2024/01/07 09:49:19;;;;;;;0.28;0.22;;;;;;;11.35;100.00;96689.13;6224051;23;20016;-93
2024/01/07 09:51:48;;;;;;;0.70;0.43;;;;;;;10.72;100.00;96613.28;6224416;23;20102;-94
2024/01/07 09:54:23;;;;;;;1.27;0.35;;;;;;;10.79;100.00;96601.31;6223282;23;20013;-94
2024/01/07 09:56:55;;;;;;;0.38;0.28;;;;;;;11.18;100.00;96684.88;6225859;23;19997;-94
2024/01/07 09:59:23;;;;;;;0.40;0.40;;;;;;;10.26;100.00;96637.34;6222337;23;20043;-95
2024/01/07 10:01:52;;;;;;;0.82;0.43;;;;;;;10.86;100.00;96678.88;6226126;23;20016;-91
2024/01/07 10:04:19;;;;;;;0.43;0.30;;;;;;;10.67;100.00;96645.47;6225239;23;20020;-94
2024/01/07 10:06:48;;;;;;;0.88;0.70;;;;;;;10.84;100.00;96691.41;6225207;23;20020;-92
2024/01/07 10:09:32;;;;;;;0.60;0.40;;;;;;;10.71;100.00;96603.59;6250559;23;20012;-94
2024/01/07 10:11:58;;;;;;;1.08;0.22;;;;;;;10.88;100.00;96651.25;6251173;22;20017;-94
2024/01/07 10:14:29;;;;;;;0.75;0.40;;;;;;;10.69;100.00;96610.81;6225382;23;20024;-94
2024/01/07 10:16:55;;;;;;;0.50;0.40;;;;;;;10.79;100.00;96608.44;6224748;23;20023;-94
2024/01/07 10:19:23;;;;;;;1.60;0.43;;;;;;;10.72;100.00;96637.22;6224120;23;20048;-93
2024/01/07 10:22:02;;;;;;;0.80;0.43;;;;;;;10.31;100.00;96599.91;6223837;23;20435;-92
2024/01/07 10:24:39;;;;;;;0.63;0.38;;;;;;;10.85;100.00;96661.25;6225390;23;20116;-92
2024/01/07 10:27:11;;;;;;;0.28;0.20;;;;;;;10.80;100.00;96631.41;6224738;23;20042;-93
2024/01/07 10:29:39;;;;;;;0.20;0.20;;;;;;;10.86;100.00;96644.31;6225884;23;20020;-94
2024/01/07 10:32:10;;;;;;;0.30;0.20;;;;;;;11.06;100.00;96690.94;6226072;23;20032;-91
2024/01/07 10:34:46;;;;;;;3.15;0.60;;;;;;;10.93;100.00;96645.69;6230843;23;20043;-92
2024/01/07 10:37:13;;;;;;;0.45;0.40;;;;;;;10.96;100.00;96671.22;6228462;23;20096;-92
2024/01/07 10:39:39;;;;;;;0.75;0.50;;;;;;;10.66;100.00;96611.84;6227546;23;20020;-92
2024/01/07 10:42:06;;;;;;;0.95;0.40;;;;;;;11.24;100.00;96688.97;6246655;23;20025;-91
2024/01/07 10:44:35;;;;;;;0.82;0.25;;;;;;;11.13;100.00;96632.94;6202977;23;20015;-93
2024/01/07 10:47:06;;;;;;;2.75;1.17;;;;;;;11.70;100.00;96681.53;6230301;23;20015;-93
2024/01/07 10:49:37;;;;;;;0.93;0.40;;;;;;;10.93;100.00;96626.19;6203335;23;20062;-93
2024/01/07 10:52:11;;;;;;;0.65;0.30;;;;;;;11.20;100.00;96653.69;6229856;22;20002;-91
2024/01/07 10:54:39;;;;;;;1.42;0.80;;;;;;;11.00;100.00;96665.59;6203384;23;20029;-93
2024/01/07 10:57:14;;;;;;;2.60;1.20;;;;;;;11.00;100.00;96654.97;6203448;23;20026;-94
2024/01/07 10:59:42;;;;;;;1.50;0.50;;;;;;;10.98;100.00;96602.84;6228402;23;20022;-93
2024/01/07 11:02:09;;;;;;;4.68;0.60;;;;;;;11.20;100.00;96604.97;6204033;23;20089;-94
2024/01/07 11:04:43;;;;;;;0.90;0.40;;;;;;;11.22;100.00;96614.56;6202913;23;20029;-94
2024/01/07 11:07:37;;;;;;;1.13;0.50;;;;;;;10.93;100.00;96647.44;6202282;23;20433;-93
2024/01/07 11:10:14;;;;;;;0.75;0.40;;;;;;;11.09;100.00;96613.63;6204195;23;20441;-93
2024/01/07 11:12:42;;;;;;;0.60;0.50;;;;;;;11.87;100.00;96676.91;6203740;23;20086;-94
2024/01/07 11:15:12;;;;;;;5.20;0.90;;;;;;;11.51;100.00;96612.69;6203087;23;20437;-93
2024/01/07 11:17:46;;;;;;;1.15;0.43;;;;;;;11.70;100.00;96635.41;6230668;23;20022;-94
2024/01/07 11:20:22;;;;;;;1.85;0.80;;;;;;;12.32;100.00;96661.53;6231862;22;20025;-94
2024/01/07 11:26:09;;;;;;;6.45;0.88;;;;;;;12.18;100.00;96613.63;5052310;27;1746336;-93
2024/01/07 11:28:53;;;;;;;0.38;0.30;;;;;;;12.21;100.00;96654.25;5142394;27;20035;-94
2024/01/07 11:31:20;;;;;;;1.30;0.65;;;;;;;11.97;100.00;96619.47;5139727;27;20031;-93
2024/01/07 11:33:47;;;;;;;2.15;0.63;;;;;;;11.84;100.00;96626.50;5143056;27;20057;-92